Time;durP1;ratioP1;P1;durP2;ratioP2;P2;SDS_P1;SDS_P2;PMS_P1;PMS_P2;Temp;Humidity;BMP_temperature;BMP_pressure;BME280_temperature;BME280_humidity;BME280_pressure;Samples;Min_cycle;Max_cycle;Signal;HPM_P1;HPM_P2
2020/12/14 07:24:20;;;;;;;11.10;7.28;;;;;;;6.63;91.62;99934.47;5076417;27;20376;-68
2020/12/14 07:26:46;;;;;;;5.85;3.63;;;;;;;6.72;91.09;99938.22;5069304;28;20044;-67
2020/12/14 07:29:12;;;;;;;7.78;4.38;;;;;;;6.78;90.96;99963.81;5073929;28;20060;-68
2020/12/14 07:31:38;;;;;;;8.32;4.85;;;;;;;6.69;91.53;99943.63;5055797;28;20029;-67
2020/12/14 07:34:03;;;;;;;12.20;4.68;;;;;;;6.85;91.82;99979.81;5033381;28;20025;-66
2020/12/14 07:36:29;;;;;;;31.90;24.80;;;;;;;6.76;92.25;99970.91;5033130;28;20109;-67
2020/12/14 07:38:57;;;;;;;9.48;5.57;;;;;;;6.77;92.78;99971.72;5036178;28;20057;-68
2020/12/14 07:41:24;;;;;;;23.05;14.63;;;;;;;6.88;93.00;99973.56;5027891;28;20033;-66
2020/12/14 07:43:50;;;;;;;9.73;5.97;;;;;;;6.97;92.33;99971.16;5036834;28;20061;-68
2020/12/14 07:46:24;;;;;;;7.55;3.60;;;;;;;6.96;91.41;99971.28;5035076;28;20030;-67
2020/12/14 07:48:55;;;;;;;6.68;4.45;;;;;;;7.02;91.76;99981.22;5031546;28;20476;-66
2020/12/14 07:51:20;;;;;;;9.98;6.35;;;;;;;6.95;91.96;99972.19;5036564;28;20076;-67
2020/12/14 07:53:49;;;;;;;6.43;3.30;;;;;;;6.84;91.23;99952.94;5030210;28;20053;-68
2020/12/14 07:56:14;;;;;;;10.15;6.30;;;;;;;7.02;91.68;99986.44;5032267;28;20108;-68
2020/12/14 07:58:50;;;;;;;8.02;4.22;;;;;;;7.05;91.39;99984.47;5041533;28;20133;-68
2020/12/14 08:01:17;;;;;;;6.18;3.45;;;;;;;7.05;91.35;99987.09;5038206;28;20399;-67
2020/12/14 08:03:43;;;;;;;6.47;3.70;;;;;;;6.85;90.98;99959.84;5040665;28;20029;-69
2020/12/14 08:06:17;;;;;;;8.07;4.15;;;;;;;7.18;90.57;99989.63;5038654;28;20041;-69
2020/12/14 08:08:48;;;;;;;5.85;2.95;;;;;;;6.99;89.87;99966.66;5035796;28;20041;-67
2020/12/14 08:11:14;;;;;;;4.32;2.25;;;;;;;7.16;90.47;99988.09;5036632;28;20029;-67
2020/12/14 08:13:45;;;;;;;9.02;4.57;;;;;;;7.14;90.48;99996.00;5035708;28;20163;-68
2020/12/14 08:16:16;;;;;;;4.47;2.30;;;;;;;7.19;90.28;99993.06;5029966;28;20069;-69
2020/12/14 08:18:44;;;;;;;5.78;3.60;;;;;;;7.03;90.83;99978.53;5040325;28;20071;-69
2020/12/14 08:21:23;;;;;;;6.40;2.80;;;;;;;7.17;90.52;100010.59;5040370;28;20064;-67
2020/12/14 08:23:49;;;;;;;4.22;2.40;;;;;;;6.82;89.68;99954.03;5034526;28;20103;-67
2020/12/14 08:26:22;;;;;;;8.18;4.07;;;;;;;7.17;90.35;100007.97;5033320;28;20500;-65
2020/12/14 08:28:49;;;;;;;9.27;5.28;;;;;;;6.98;90.31;99982.41;5034677;28;20034;-66
2020/12/14 08:31:14;;;;;;;6.82;4.25;;;;;;;6.98;90.30;99985.00;5026982;28;20022;-68
2020/12/14 08:33:55;;;;;;;7.50;3.88;;;;;;;7.21;90.29;100006.81;5023740;28;20025;-70
2020/12/14 08:36:21;;;;;;;12.27;6.60;;;;;;;7.29;90.19;100013.16;5021190;28;20044;-68
2020/12/14 08:38:48;;;;;;;6.63;3.35;;;;;;;7.07;89.96;99995.59;5015841;28;20095;-67
2020/12/14 08:41:20;;;;;;;6.35;3.33;;;;;;;7.10;89.18;99998.00;5021523;28;20031;-69
2020/12/14 08:43:45;;;;;;;5.00;2.90;;;;;;;7.28;89.49;100014.06;5016462;28;20042;-67
2020/12/14 08:46:16;;;;;;;8.05;5.32;;;;;;;7.22;88.70;100011.06;5020972;28;20028;-67
2020/12/14 08:48:41;;;;;;;5.30;2.80;;;;;;;7.19;89.34;100009.53;5016357;28;20040;-68
2020/12/14 08:51:14;;;;;;;3.05;1.55;;;;;;;7.03;88.78;99988.94;5013454;28;20440;-69
2020/12/14 08:53:41;;;;;;;5.10;2.72;;;;;;;7.11;88.75;100017.06;5014881;28;20037;-67
2020/12/14 08:56:14;;;;;;;3.75;1.92;;;;;;;6.87;89.37;99975.34;5015628;28;20466;-68
2020/12/14 08:58:57;;;;;;;5.68;2.50;;;;;;;7.19;89.36;100013.91;5014565;28;20028;-67
2020/12/14 09:01:28;;;;;;;7.32;4.05;;;;;;;7.18;90.31;100002.66;5022958;28;20034;-68
2020/12/14 09:04:03;;;;;;;8.25;4.63;;;;;;;7.23;90.47;100012.75;5017137;28;20037;-67
2020/12/14 09:06:39;;;;;;;4.75;2.10;;;;;;;7.09;89.79;100009.38;5021374;28;20504;-70
2020/12/14 09:09:09;;;;;;;9.27;5.28;;;;;;;6.90;90.41;99979.53;5013170;28;20101;-68
2020/12/14 09:11:50;;;;;;;8.30;4.65;;;;;;;7.14;89.95;100006.41;5020033;28;20033;-67
2020/12/14 09:14:20;;;;;;;9.45;4.30;;;;;;;7.01;89.85;99982.19;5018913;28;20045;-69
2020/12/14 09:16:50;;;;;;;;;;;;;;;7.20;90.60;100008.59;5020872;28;20029;-67
2020/12/14 09:19:23;;;;;;;9.65;5.43;;;;;;;7.00;91.23;99972.72;5016548;28;20384;-67
2020/12/14 09:21:49;;;;;;;13.15;7.00;;;;;;;7.03;91.48;99982.91;5020239;28;20429;-68
2020/12/14 09:24:23;;;;;;;15.00;12.15;;;;;;;7.19;91.83;100000.88;5018855;28;20064;-67
2020/12/14 09:26:50;;;;;;;8.68;5.32;;;;;;;7.06;91.19;99972.28;5016863;28;20033;-67
2020/12/14 09:29:16;;;;;;;9.57;4.45;;;;;;;7.21;91.29;99993.78;5020367;28;20110;-68
2020/12/14 09:31:53;;;;;;;11.18;5.13;;;;;;;7.06;91.87;99960.06;5013612;28;20056;-69
2020/12/14 09:34:20;;;;;;;8.07;4.28;;;;;;;7.30;92.18;99999.16;5023239;28;20127;-68
2020/12/14 09:36:49;;;;;;;5.47;3.28;;;;;;;7.30;91.11;99993.94;5023683;28;20022;-68
2020/12/14 09:39:14;;;;;;;7.78;3.50;;;;;;;7.01;91.18;99950.91;5028862;28;20033;-67
2020/12/14 09:41:40;;;;;;;8.00;4.10;;;;;;;7.07;91.94;99960.91;5022901;28;20501;-67
2020/12/14 09:44:05;;;;;;;5.40;3.00;;;;;;;7.26;91.58;99984.69;5026322;28;20436;-68
2020/12/14 09:46:31;;;;;;;2.83;1.83;;;;;;;7.28;91.19;99995.00;5023973;28;20021;-67
2020/12/14 09:48:58;;;;;;;4.85;2.47;;;;;;;7.27;90.40;99965.50;5023054;28;20061;-67
2020/12/14 09:51:24;;;;;;;6.07;3.88;;;;;;;7.13;90.41;99951.81;5026502;28;20037;-67
2020/12/14 09:53:50;;;;;;;5.15;3.15;;;;;;;7.35;90.61;99962.31;5023086;28;20138;-68
2020/12/14 09:56:17;;;;;;;4.35;2.33;;;;;;;7.19;89.96;99951.34;5025990;28;20501;-70
2020/12/14 09:58:43;;;;;;;3.50;2.25;;;;;;;7.42;91.10;99973.13;5025077;28;20029;-67
2020/12/14 10:01:09;;;;;;;5.97;3.40;;;;;;;7.33;90.88;99964.22;5025880;28;20476;-67
2020/12/14 10:03:35;;;;;;;4.15;2.22;;;;;;;7.25;90.10;99948.31;5021644;28;20044;-69
2020/12/14 10:06:01;;;;;;;3.80;2.65;;;;;;;7.23;90.39;99943.22;5020749;28;20029;-68
2020/12/14 10:08:27;;;;;;;4.35;2.40;;;;;;;7.29;89.53;99970.63;5021892;28;20068;-67
2020/12/14 10:10:55;;;;;;;6.47;3.88;;;;;;;7.28;90.17;99976.75;5021007;28;20057;-67
2020/12/14 10:13:21;;;;;;;10.52;6.22;;;;;;;7.06;90.40;99944.44;5020841;28;20018;-68
2020/12/14 10:15:47;;;;;;;9.38;4.95;;;;;;;6.82;90.53;99921.00;5020749;28;20052;-68
2020/12/14 10:18:12;;;;;;;6.00;3.13;;;;;;;7.04;89.60;99948.09;5024547;28;20536;-68
2020/12/14 10:20:37;;;;;;;4.13;2.30;;;;;;;7.21;89.72;99973.75;5025797;28;20025;-68
2020/12/14 10:23:04;;;;;;;3.95;1.83;;;;;;;7.17;89.17;99961.06;5019622;28;20049;-69
2020/12/14 10:25:29;;;;;;;6.50;3.42;;;;;;;7.01;89.27;99938.72;5019636;28;20028;-68
2020/12/14 10:27:55;;;;;;;5.13;3.17;;;;;;;7.17;89.29;99972.31;5013956;28;20429;-68
2020/12/14 10:30:20;;;;;;;72.18;52.92;;;;;;;6.97;89.81;99936.44;5024050;28;20083;-68
2020/12/14 10:32:46;;;;;;;153.23;116.60;;;;;;;6.99;89.98;99950.22;5021114;28;20099;-67
2020/12/14 10:35:12;;;;;;;16.73;11.73;;;;;;;7.21;89.20;99973.75;5022205;28;20038;-67
2020/12/14 10:37:38;;;;;;;15.30;10.07;;;;;;;7.22;89.29;99972.84;5017409;28;20033;-67
2020/12/14 10:40:05;;;;;;;11.23;8.02;;;;;;;7.20;90.99;99979.09;5025270;28;20416;-68
2020/12/14 10:42:31;;;;;;;8.60;5.90;;;;;;;7.20;89.79;99981.69;5025915;28;20029;-70
2020/12/14 10:44:58;;;;;;;9.30;6.30;;;;;;;7.23;89.18;99990.13;5018812;28;20064;-70
2020/12/14 10:47:23;;;;;;;8.52;6.07;;;;;;;7.00;89.24;99946.66;5022905;28;20060;-67
2020/12/14 10:49:49;;;;;;;12.77;9.07;;;;;;;7.08;89.79;99962.56;5023696;28;20492;-67
2020/12/14 10:52:14;;;;;;;13.18;9.18;;;;;;;7.23;89.06;99990.13;5024511;28;20040;-68
2020/12/14 10:54:40;;;;;;;24.80;16.50;;;;;;;7.12;89.53;99964.03;5025954;28;20115;-68
2020/12/14 10:57:05;;;;;;;18.85;12.43;;;;;;;7.09;89.13;99978.09;5024294;28;20029;-67
2020/12/14 10:59:31;;;;;;;11.27;7.70;;;;;;;7.07;89.71;99963.50;5023047;28;20033;-67
2020/12/14 11:01:56;;;;;;;19.13;11.95;;;;;;;7.19;90.26;99972.19;5024549;28;20026;-68
2020/12/14 11:04:23;;;;;;;11.48;7.38;;;;;;;7.16;89.73;99983.69;5025386;28;20039;-69
2020/12/14 11:06:48;;;;;;;12.75;7.90;;;;;;;6.98;89.67;99958.94;5025852;28;20469;-68
2020/12/14 11:09:14;;;;;;;13.65;9.82;;;;;;;7.07;90.05;99976.53;5026647;28;20037;-68
2020/12/14 11:11:40;;;;;;;8.07;5.75;;;;;;;6.95;89.89;99960.03;5023562;28;20485;-68
2020/12/14 11:14:05;;;;;;;6.45;3.83;;;;;;;7.09;90.38;99988.53;5022617;28;20026;-67
2020/12/14 11:16:32;;;;;;;16.23;12.02;;;;;;;6.96;91.05;99966.06;5024323;28;20033;-68
2020/12/14 11:18:58;;;;;;;9.60;5.97;;;;;;;7.12;90.08;99987.47;5021568;28;20405;-67
2020/12/14 11:21:24;;;;;;;10.13;6.72;;;;;;;7.10;89.68;99984.13;5023152;28;20044;-67
2020/12/14 11:23:50;;;;;;;52.05;36.63;;;;;;;6.93;90.29;99958.47;5018310;28;20054;-69
2020/12/14 11:26:15;;;;;;;9.18;5.97;;;;;;;7.04;90.21;99993.22;5013080;28;20037;-69
2020/12/14 11:28:41;;;;;;;11.20;8.23;;;;;;;6.95;89.95;99977.41;5017875;28;20465;-67
2020/12/14 11:31:07;;;;;;;5.13;3.17;;;;;;;7.01;89.64;99988.22;5014234;28;20130;-66
2020/12/14 11:33:34;;;;;;;18.25;12.75;;;;;;;7.06;90.26;99993.94;5020955;28;20505;-68
2020/12/14 11:36:00;;;;;;;20.00;14.57;;;;;;;6.92;90.41;99964.59;5024569;28;20030;-67
2020/12/14 11:38:25;;;;;;;13.88;10.13;;;;;;;6.83;90.08;99956.50;5023344;28;20030;-67
2020/12/14 11:40:50;;;;;;;7.03;3.83;;;;;;;6.77;89.49;99946.50;5019281;28;20032;-67
2020/12/14 11:43:16;;;;;;;8.65;5.53;;;;;;;7.09;90.14;99993.72;5024266;28;20045;-68
2020/12/14 11:45:42;;;;;;;6.60;4.03;;;;;;;6.82;90.53;99962.66;5020916;28;20022;-67
2020/12/14 11:48:07;;;;;;;10.02;5.38;;;;;;;6.97;90.36;99993.78;5025247;28;20040;-68
2020/12/14 11:50:33;;;;;;;11.15;7.45;;;;;;;6.96;90.68;99979.09;5017014;28;20025;-67
2020/12/14 11:52:58;;;;;;;8.68;4.90;;;;;;;6.92;90.19;99973.25;5015836;28;20098;-69
2020/12/14 11:55:23;;;;;;;7.85;4.93;;;;;;;6.78;90.03;99970.78;5021728;28;20037;-70
2020/12/14 11:57:49;;;;;;;10.70;6.95;;;;;;;6.81;90.47;99981.81;5014347;28;20030;-69
2020/12/14 12:00:15;;;;;;;12.05;7.78;;;;;;;6.90;90.34;100010.78;5020321;28;20025;-68
2020/12/14 12:02:40;;;;;;;13.73;7.70;;;;;;;6.93;91.28;100007.97;5018653;28;20033;-68
2020/12/14 12:05:06;;;;;;;14.85;11.70;;;;;;;6.75;91.33;99978.81;5024133;28;20080;-67
2020/12/14 12:07:31;;;;;;;6.28;3.45;;;;;;;6.75;90.27;99974.47;5021873;28;20033;-67
2020/12/14 12:09:57;;;;;;;12.65;10.73;;;;;;;6.89;90.61;99996.94;5025534;28;20032;-68
2020/12/14 12:12:22;;;;;;;8.05;5.25;;;;;;;6.68;90.09;99956.75;5023846;28;20033;-68
2020/12/14 12:14:48;;;;;;;14.50;10.00;;;;;;;6.91;90.64;99996.81;5024487;28;20075;-68
2020/12/14 12:17:13;;;;;;;14.80;9.75;;;;;;;6.90;90.12;99998.59;5028409;28;20496;-68
2020/12/14 12:19:39;;;;;;;13.52;8.48;;;;;;;6.79;90.29;99980.28;5024074;28;20574;-67
2020/12/14 12:22:04;;;;;;;6.85;4.07;;;;;;;6.79;89.75;99975.06;5023121;28;20040;-68
2020/12/14 12:24:30;;;;;;;6.13;3.38;;;;;;;6.96;90.04;100011.19;5016610;28;20029;-69
2020/12/14 12:26:55;;;;;;;7.18;4.03;;;;;;;6.96;90.24;100011.19;5024024;28;20022;-69
2020/12/14 12:29:21;;;;;;;16.98;11.82;;;;;;;6.95;90.66;100006.06;5022103;28;20026;-68
2020/12/14 12:31:55;;;;;;;80.97;58.38;;;;;;;6.86;90.80;100000.56;5022307;28;20452;-68
2020/12/14 12:34:20;;;;;;;8.63;5.18;;;;;;;6.76;91.25;99981.31;5024255;28;20064;-68
2020/12/14 12:36:57;;;;;;;10.02;6.90;;;;;;;6.92;91.58;100007.13;5025245;28;20061;-67
2020/12/14 12:39:23;;;;;;;9.05;6.32;;;;;;;6.89;91.09;99988.28;5027992;28;20021;-69
2020/12/14 12:41:50;;;;;;;7.07;4.53;;;;;;;6.81;91.16;99986.19;5023878;28;20409;-68
2020/12/14 12:44:16;;;;;;;8.73;6.97;;;;;;;6.83;91.48;99992.97;5022749;28;20123;-70
2020/12/14 12:46:42;;;;;;;9.45;6.78;;;;;;;6.89;91.91;99993.50;5024464;28;20044;-68
2020/12/14 12:49:08;;;;;;;9.20;5.90;;;;;;;7.12;91.37;100025.72;5020808;28;20038;-65
2020/12/14 12:51:34;;;;;;;9.27;5.93;;;;;;;7.14;91.67;100018.63;5024209;28;20041;-67
2020/12/14 12:54:00;;;;;;;8.52;4.28;;;;;;;7.11;90.39;100024.88;5025474;28;21219;-68
2020/12/14 12:56:26;;;;;;;9.38;6.38;;;;;;;7.11;90.29;100011.84;5023235;28;20052;-68
2020/12/14 12:58:52;;;;;;;8.10;5.32;;;;;;;6.97;90.75;100004.19;5024661;28;20092;-68
2020/12/14 13:01:18;;;;;;;7.50;4.22;;;;;;;7.10;90.24;100023.22;5022827;28;20025;-69
2020/12/14 13:03:44;;;;;;;5.45;3.45;;;;;;;7.03;90.20;100024.59;5021153;28;20025;-68
2020/12/14 13:06:09;;;;;;;6.32;4.85;;;;;;;7.07;91.62;100037.31;5017860;28;20037;-69
2020/12/14 13:08:35;;;;;;;6.93;4.05;;;;;;;7.08;90.95;100023.31;5013943;28;20026;-69
2020/12/14 13:11:01;;;;;;;8.48;4.72;;;;;;;7.04;91.26;100024.47;5014865;28;20026;-69
2020/12/14 13:13:26;;;;;;;10.18;6.47;;;;;;;7.06;91.04;100017.41;5021783;28;20030;-68
2020/12/14 13:15:52;;;;;;;5.55;3.00;;;;;;;7.17;89.87;100037.47;5024109;28;20034;-68
2020/12/14 13:18:17;;;;;;;8.38;4.72;;;;;;;6.96;90.37;100005.97;5023332;28;20038;-68
2020/12/14 13:20:43;;;;;;;10.43;7.93;;;;;;;7.13;90.33;100036.03;5024809;28;20420;-69
2020/12/14 13:23:10;;;;;;;9.13;7.13;;;;;;;6.99;90.66;100010.13;5024191;28;20057;-68
2020/12/14 13:25:35;;;;;;;11.23;9.45;;;;;;;7.16;90.65;100042.81;5015323;28;20029;-69
2020/12/14 13:28:00;;;;;;;13.80;11.82;;;;;;;7.15;89.34;100044.56;5013407;28;20032;-70
2020/12/14 13:30:26;;;;;;;51.17;37.30;;;;;;;6.95;89.57;100019.09;5020626;28;20022;-67
2020/12/14 13:32:51;;;;;;;7.60;5.07;;;;;;;6.91;88.96;100028.91;5013603;28;20041;-70
2020/12/14 13:35:18;;;;;;;9.45;6.70;;;;;;;7.01;89.88;100048.16;5020264;28;20053;-71
2020/12/14 13:37:44;;;;;;;7.15;4.75;;;;;;;7.08;89.57;100066.78;5015552;28;20037;-70
2020/12/14 13:40:09;;;;;;;5.75;3.25;;;;;;;7.10;88.32;100065.75;5024638;28;20032;-69
2020/12/14 13:42:35;;;;;;;6.65;4.15;;;;;;;7.09;89.19;100076.28;5021769;28;20038;-67
2020/12/14 13:45:01;;;;;;;7.90;4.13;;;;;;;7.08;88.38;100077.22;5023869;28;20030;-67
2020/12/14 13:47:26;;;;;;;8.65;4.82;;;;;;;6.97;88.57;100064.94;5022246;28;20048;-68
2020/12/14 13:49:52;;;;;;;7.80;5.20;;;;;;;6.91;88.40;100067.97;5024411;28;20072;-67
2020/12/14 13:52:18;;;;;;;10.32;6.60;;;;;;;6.86;88.97;100063.09;5023458;28;20421;-68
2020/12/14 13:54:43;;;;;;;13.82;9.05;;;;;;;6.71;89.46;100048.50;5021954;28;20048;-67
2020/12/14 13:57:09;;;;;;;16.77;11.00;;;;;;;6.72;90.01;100062.41;5025444;28;20037;-67
2020/12/14 13:59:34;;;;;;;22.50;16.40;;;;;;;6.81;89.80;100051.31;5020500;28;20056;-69
2020/12/14 14:02:00;;;;;;;18.58;12.25;;;;;;;7.05;89.86;100086.09;5026490;28;20025;-67
2020/12/14 14:04:25;;;;;;;18.75;13.80;;;;;;;6.97;90.36;100067.56;5023628;28;20034;-70
2020/12/14 14:06:51;;;;;;;20.52;13.38;;;;;;;7.08;90.35;100091.06;5024260;28;20056;-66
2020/12/14 14:09:17;;;;;;;11.80;7.40;;;;;;;7.16;89.78;100087.13;5018023;28;20034;-69
2020/12/14 14:11:49;;;;;;;17.15;11.05;;;;;;;7.02;89.26;100072.44;5032267;28;20117;-67
2020/12/14 14:14:14;;;;;;;17.67;12.85;;;;;;;7.03;89.27;100081.94;5032186;28;20032;-67
2020/12/14 14:16:40;;;;;;;14.32;9.10;;;;;;;6.92;88.61;100079.22;5032623;28;20109;-67
2020/12/14 14:19:05;;;;;;;34.72;25.85;;;;;;;7.10;89.81;100111.84;5033424;28;20392;-66
2020/12/14 14:21:30;;;;;;;23.15;16.25;;;;;;;6.76;88.88;100056.03;5033139;28;20481;-66
2020/12/14 14:23:56;;;;;;;22.30;16.10;;;;;;;6.88;90.07;100077.78;5032578;28;20049;-67
2020/12/14 14:26:21;;;;;;;17.15;11.68;;;;;;;6.94;90.04;100117.25;5015258;28;20028;-67
2020/12/14 14:28:47;;;;;;;14.20;9.43;;;;;;;7.00;89.53;100110.81;5032761;28;20036;-67
2020/12/14 14:31:16;;;;;;;17.85;11.25;;;;;;;6.67;89.50;100078.31;5032381;28;20854;-67
2020/12/14 14:33:42;;;;;;;14.93;10.38;;;;;;;6.94;89.33;100116.44;5032610;28;20032;-67
2020/12/14 14:36:09;;;;;;;13.73;7.57;;;;;;;6.80;90.01;100099.16;5033140;28;20025;-67
2020/12/14 14:38:34;;;;;;;7.18;4.15;;;;;;;6.98;89.61;100128.31;5032931;28;20029;-67
2020/12/14 14:41:00;;;;;;;8.30;4.50;;;;;;;6.72;89.73;100102.28;5032891;28;20017;-67
2020/12/14 14:43:25;;;;;;;9.25;4.65;;;;;;;6.72;89.47;100110.09;5032611;28;20028;-67
2020/12/14 14:45:51;;;;;;;10.27;6.07;;;;;;;6.88;89.64;100142.91;5033053;28;20428;-67
2020/12/14 14:48:17;;;;;;;9.40;5.40;;;;;;;6.75;90.01;100141.16;5032750;28;20554;-66
2020/12/14 14:50:47;;;;;;;9.52;5.68;;;;;;;6.75;90.48;100140.28;5032732;28;20507;-67
2020/12/14 14:53:13;;;;;;;10.43;5.70;;;;;;;6.64;89.89;100117.59;5032831;28;20446;-67
2020/12/14 14:55:45;;;;;;;8.07;4.57;;;;;;;6.60;89.27;100113.53;5032523;28;20033;-67
2020/12/14 14:58:11;;;;;;;7.03;4.97;;;;;;;6.62;89.82;100119.47;5032922;28;20104;-67
2020/12/14 15:00:36;;;;;;;6.85;4.50;;;;;;;6.68;89.68;100142.47;5032914;28;20097;-67
2020/12/14 15:03:01;;;;;;;7.78;4.70;;;;;;;6.52;89.54;100118.44;5032708;28;20036;-66
2020/12/14 15:05:27;;;;;;;7.97;5.35;;;;;;;6.59;89.84;100130.94;5032336;28;20036;-66
2020/12/14 15:07:52;;;;;;;9.00;4.65;;;;;;;6.70;89.72;100155.41;5031278;28;20167;-67
2020/12/14 15:10:18;;;;;;;7.65;4.85;;;;;;;6.23;90.41;100079.56;5032334;28;20021;-67
2020/12/14 15:12:43;;;;;;;12.90;7.57;;;;;;;6.57;90.51;100155.41;5032890;28;20071;-67
2020/12/14 15:15:09;;;;;;;9.70;5.32;;;;;;;6.54;89.61;100138.19;5032419;28;20036;-67
2020/12/14 15:17:35;;;;;;;7.47;4.60;;;;;;;6.58;89.96;100128.41;5032400;28;20029;-67
2020/12/14 15:20:00;;;;;;;8.02;5.47;;;;;;;6.65;90.20;100145.31;5032243;28;20026;-67
2020/12/14 15:22:25;;;;;;;8.38;6.72;;;;;;;6.63;90.42;100162.81;5032032;28;20056;-67
2020/12/14 15:24:51;;;;;;;10.63;8.05;;;;;;;6.63;89.94;100161.03;5032275;28;20087;-67
2020/12/14 15:27:16;;;;;;;7.32;5.18;;;;;;;6.64;90.35;100154.03;5032236;28;20026;-67
2020/12/14 15:29:42;;;;;;;12.50;7.72;;;;;;;6.55;90.82;100146.88;5032327;28;20018;-67
2020/12/14 15:32:07;;;;;;;12.98;7.93;;;;;;;6.59;91.14;100162.19;5032144;28;20059;-67
2020/12/14 15:34:32;;;;;;;9.77;6.32;;;;;;;6.41;90.68;100126.09;5032144;28;20026;-66
2020/12/14 15:36:58;;;;;;;10.23;7.95;;;;;;;6.68;91.56;100191.97;5031675;28;20022;-67
2020/12/14 15:39:24;;;;;;;7.88;5.05;;;;;;;6.52;91.26;100160.09;5031782;28;20119;-67
2020/12/14 15:41:49;;;;;;;9.13;5.70;;;;;;;6.57;91.40;100163.22;5032238;28;20029;-67
2020/12/14 15:44:15;;;;;;;7.85;5.53;;;;;;;6.67;91.75;100197.28;5034618;28;20029;-66
2020/12/14 15:46:40;;;;;;;8.68;6.05;;;;;;;6.76;91.12;100207.09;5036002;28;20095;-66
2020/12/14 15:49:06;;;;;;;11.40;7.25;;;;;;;6.75;90.40;100208.88;5036096;28;20029;-66
2020/12/14 15:51:31;;;;;;;12.10;7.35;;;;;;;6.61;91.47;100190.72;5036026;28;20120;-66
2020/12/14 15:53:56;;;;;;;13.32;7.47;;;;;;;6.49;90.84;100179.34;5035965;28;20392;-67
2020/12/14 15:56:22;;;;;;;12.75;7.32;;;;;;;6.53;90.87;100182.59;5035750;28;20396;-67
2020/12/14 15:58:48;;;;;;;12.73;8.30;;;;;;;6.67;90.41;100211.13;5035950;28;20025;-66
2020/12/14 16:01:17;;;;;;;11.02;7.07;;;;;;;6.64;90.39;100208.72;5035669;28;20040;-66
2020/12/14 16:03:43;;;;;;;10.48;6.53;;;;;;;6.51;90.84;100200.91;5035817;28;20108;-66
2020/12/14 16:06:08;;;;;;;9.05;5.60;;;;;;;6.46;90.06;100191.75;5035626;28;20083;-66
2020/12/14 16:08:34;;;;;;;8.10;5.90;;;;;;;6.55;91.08;100211.97;5035404;28;20018;-67
2020/12/14 16:11:01;;;;;;;9.38;5.57;;;;;;;6.64;91.03;100221.75;5035443;28;20086;-67
2020/12/14 16:13:26;;;;;;;11.15;5.97;;;;;;;6.60;91.41;100225.50;5034967;28;20022;-67
2020/12/14 16:15:52;;;;;;;9.30;6.13;;;;;;;6.54;91.61;100228.50;5034844;28;20033;-68
2020/12/14 16:18:17;;;;;;;11.20;7.88;;;;;;;6.53;91.40;100229.44;5030885;28;20029;-67
2020/12/14 16:20:43;;;;;;;14.20;9.32;;;;;;;6.43;90.59;100207.56;5033781;28;20086;-67
2020/12/14 16:23:08;;;;;;;13.95;7.85;;;;;;;6.58;89.88;100220.41;5034146;28;20053;-66
2020/12/14 16:25:35;;;;;;;12.05;6.80;;;;;;;6.46;90.50;100208.19;5035641;28;20504;-66
2020/12/14 16:28:01;;;;;;;8.48;5.57;;;;;;;6.35;90.44;100205.47;5035356;28;20104;-66
2020/12/14 16:30:26;;;;;;;16.15;11.25;;;;;;;6.57;90.40;100236.13;5033947;28;20547;-66
2020/12/14 16:32:52;;;;;;;8.32;4.30;;;;;;;6.54;90.23;100250.16;5035190;28;20033;-67
2020/12/14 16:35:17;;;;;;;36.35;21.15;;;;;;;6.62;88.91;100244.47;5035286;28;20030;-66
2020/12/14 16:37:44;;;;;;;24.25;14.13;;;;;;;6.43;89.04;100212.75;5035154;28;20032;-66
2020/12/14 16:40:09;;;;;;;23.38;15.40;;;;;;;6.36;89.56;100217.53;5035226;28;20036;-66
2020/12/14 16:42:36;;;;;;;17.42;8.25;;;;;;;6.36;90.55;100222.75;5035045;28;20026;-67
2020/12/14 16:45:03;;;;;;;12.15;8.23;;;;;;;6.54;89.74;100257.16;5035059;28;20025;-66
2020/12/14 16:47:29;;;;;;;13.82;8.18;;;;;;;6.67;90.05;100258.03;5033697;28;20038;-67
2020/12/14 16:49:55;;;;;;;16.85;12.35;;;;;;;6.45;90.30;100223.94;5034917;28;20026;-66
2020/12/14 16:52:20;;;;;;;7.40;4.90;;;;;;;6.56;90.73;100265.72;5033758;28;20374;-67
2020/12/14 16:54:47;;;;;;;7.30;5.78;;;;;;;6.54;90.30;100267.56;5034341;28;20439;-67
2020/12/14 16:57:13;;;;;;;7.63;6.07;;;;;;;6.39;90.46;100245.97;5034065;28;20056;-66
2020/12/14 16:59:39;;;;;;;10.13;3.90;;;;;;;6.52;90.85;100264.25;5034242;28;20481;-67
2020/12/14 17:02:10;;;;;;;8.18;3.83;;;;;;;6.37;90.83;100235.66;5032763;28;20083;-67
2020/12/14 17:04:57;;;;;;;15.52;6.97;;;;;;;6.58;90.38;100275.09;5033995;28;20025;-67
2020/12/14 17:07:27;;;;;;;13.90;7.90;;;;;;;6.52;89.30;100274.66;5035129;28;20024;-67
2020/12/14 17:09:53;;;;;;;14.10;7.65;;;;;;;6.49;90.19;100275.69;5041921;28;20025;-67
2020/12/14 17:12:18;;;;;;;22.60;8.13;;;;;;;6.44;90.33;100279.50;5033984;28;20045;-68
2020/12/14 17:14:44;;;;;;;23.42;7.93;;;;;;;6.34;90.60;100261.88;5032430;28;20026;-67
2020/12/14 17:17:09;;;;;;;12.35;6.50;;;;;;;6.43;91.38;100289.09;5037775;28;20033;-68
2020/12/14 17:19:35;;;;;;;12.25;6.85;;;;;;;6.30;90.84;100255.19;5034553;28;20554;-67
2020/12/14 17:22:00;;;;;;;15.15;7.50;;;;;;;6.44;91.63;100292.53;5032308;28;20033;-68
2020/12/14 17:24:32;;;;;;;12.95;6.80;;;;;;;6.61;91.69;100289.66;5033775;28;20428;-67
2020/12/14 17:26:58;;;;;;;13.95;8.25;;;;;;;6.39;91.27;100261.59;5035015;28;20036;-67
2020/12/14 17:29:24;;;;;;;12.30;7.28;;;;;;;6.30;91.46;100257.81;5032902;28;20175;-67
2020/12/14 17:31:52;;;;;;;15.20;8.25;;;;;;;6.35;91.47;100266.16;5033251;28;20104;-67
2020/12/14 17:34:20;;;;;;;9.40;6.22;;;;;;;6.41;92.57;100296.16;5033533;28;20030;-66
2020/12/14 17:36:45;;;;;;;10.48;6.00;;;;;;;6.52;92.38;100311.09;5034041;28;20119;-67
2020/12/14 17:39:11;;;;;;;6.97;2.78;;;;;;;6.43;92.70;100296.06;5034186;28;20053;-66
2020/12/14 17:41:36;;;;;;;7.30;2.72;;;;;;;6.51;92.60;100314.63;5033905;28;20107;-66
2020/12/14 17:44:02;;;;;;;6.15;2.72;;;;;;;6.37;92.13;100292.09;5033921;28;20038;-66
2020/12/14 17:46:27;;;;;;;7.30;2.63;;;;;;;6.53;92.39;100324.03;5036033;28;20024;-68
2020/12/14 17:48:52;;;;;;;9.02;5.43;;;;;;;6.74;92.03;100326.16;5033852;28;20033;-66
2020/12/14 17:51:18;;;;;;;17.55;12.15;;;;;;;6.92;91.42;100335.41;5034233;28;20026;-66
2020/12/14 17:53:43;;;;;;;6.57;3.47;;;;;;;6.71;90.79;100305.53;5032803;28;20033;-66
2020/12/14 17:56:09;;;;;;;5.15;2.78;;;;;;;6.64;90.58;100305.09;5031398;28;20036;-67
2020/12/14 17:58:34;;;;;;;7.03;5.13;;;;;;;6.68;90.35;100316.97;5033385;28;20025;-67
2020/12/14 18:01:01;;;;;;;5.57;3.13;;;;;;;6.73;90.27;100314.09;5026508;28;20512;-68
2020/12/14 18:03:28;;;;;;;5.43;3.10;;;;;;;6.83;89.91;100339.44;5015732;28;20033;-67
2020/12/14 18:05:54;;;;;;;6.38;2.83;;;;;;;6.72;90.76;100328.06;5018701;28;20036;-67
2020/12/14 18:08:19;;;;;;;5.57;2.35;;;;;;;6.77;90.99;100342.44;5019924;28;20033;-68
2020/12/14 18:10:45;;;;;;;5.18;2.53;;;;;;;6.70;91.41;100346.38;5015243;28;20092;-68
2020/12/14 18:13:12;;;;;;;5.55;3.28;;;;;;;6.86;91.01;100347.06;5022085;28;20041;-67
2020/12/14 18:15:37;;;;;;;8.88;6.07;;;;;;;6.93;90.35;100357.09;5022454;28;20025;-66
2020/12/14 18:18:03;;;;;;;5.32;2.75;;;;;;;6.81;91.00;100356.94;5021719;28;20108;-67
2020/12/14 18:20:30;;;;;;;5.53;2.60;;;;;;;6.80;91.25;100362.25;5020671;28;20030;-66
2020/12/14 18:22:55;;;;;;;4.13;2.05;;;;;;;6.78;91.76;100364.09;5022133;28;20050;-68
2020/12/14 18:25:21;;;;;;;25.83;15.93;;;;;;;6.73;90.88;100343.56;5019183;28;20022;-67
2020/12/14 18:27:46;;;;;;;5.28;2.53;;;;;;;6.90;90.95;100372.91;5023030;28;20127;-67
2020/12/14 18:30:13;;;;;;;3.35;1.77;;;;;;;6.76;91.71;100340.78;5026411;28;20406;-68
2020/12/14 18:37:01;;;;;;;4.28;1.90;;;;;;;6.77;91.53;100350.25;5021941;28;20064;-67
2020/12/14 19:42:01;;;;;;;10.57;7.47;;;;;;;6.73;93.82;100387.03;5015381;28;20447;-69
2020/12/14 21:24:10;;;;;;;15.68;7.05;;;;;;;6.53;92.96;100422.13;5033912;28;20453;-66
2020/12/14 21:26:37;;;;;;;18.50;7.30;;;;;;;6.82;93.54;100472.41;5034205;28;20464;-66
2020/12/14 21:29:02;;;;;;;17.45;4.55;;;;;;;6.78;92.82;100437.03;5034028;28;20413;-66
2020/12/14 21:31:28;;;;;;;10.38;4.22;;;;;;;6.92;92.60;100464.81;5033677;28;20037;-67
2020/12/14 21:33:53;;;;;;;11.10;4.22;;;;;;;6.67;93.05;100435.13;5034093;28;20491;-67
2020/12/14 21:36:23;;;;;;;6.57;3.97;;;;;;;6.95;93.03;100475.06;5034068;28;20477;-66
2020/12/14 21:38:49;;;;;;;6.30;3.78;;;;;;;6.86;92.85;100461.69;5033908;28;20032;-66